Time;durP1;ratioP1;P1;durP2;ratioP2;P2;SDS_P1;SDS_P2;PMS_P1;PMS_P2;Temp;Humidity;BMP_temperature;BMP_pressure;BME280_temperature;BME280_humidity;BME280_pressure;Samples;Min_cycle;Max_cycle;Signal;HPM_P1;HPM_P2
2023/04/18 00:02:16;;;;;;;15.25;10.95;;;;;;;;;;5026138;28;20064;-72
2023/04/18 00:04:45;;;;;;;16.23;11.40;;;;;;;;;;5027448;28;20112;-71
2023/04/18 00:07:12;;;;;;;17.05;10.05;;;;;;;;;;5027340;28;20047;-73
2023/04/18 00:09:38;;;;;;;14.13;9.95;;;;;;;;;;5027222;28;20042;-73
2023/04/18 00:12:05;;;;;;;15.98;11.38;;;;;;;;;;5030669;28;20095;-71
2023/04/18 00:14:33;;;;;;;15.73;10.60;;;;;;;;;;5009496;28;20082;-71
2023/04/18 00:17:01;;;;;;;11.63;10.00;;;;;;;;;;5007782;28;20045;-72
2023/04/18 00:19:27;;;;;;;13.10;10.50;;;;;;;;;;5016056;28;20037;-71
2023/04/18 00:21:53;;;;;;;14.98;10.35;;;;;;;;;;5038219;28;20446;-73
2023/04/18 00:24:19;;;;;;;18.48;11.10;;;;;;;;;;5027705;28;20064;-71
2023/04/18 00:26:45;;;;;;;13.45;10.52;;;;;;;;;;5028310;28;20045;-71
2023/04/18 00:29:11;;;;;;;15.35;10.90;;;;;;;;;;5014879;28;20037;-71
2023/04/18 00:31:38;;;;;;;14.35;10.38;;;;;;;;;;5026385;28;20033;-70
2023/04/18 00:34:04;;;;;;;16.75;9.48;;;;;;;;;;5026007;28;20344;-71
2023/04/18 00:36:30;;;;;;;11.35;9.10;;;;;;;;;;5015114;28;20048;-71
2023/04/18 00:38:56;;;;;;;13.38;10.20;;;;;;;;;;5028272;28;20546;-71
2023/04/18 00:41:26;;;;;;;13.07;10.02;;;;;;;;;;5020063;28;20052;-72
2023/04/18 00:43:53;;;;;;;15.73;9.85;;;;;;;;;;5026248;28;20033;-72
2023/04/18 00:46:19;;;;;;;14.85;8.70;;;;;;;;;;5026388;28;20052;-71
2023/04/18 00:48:45;;;;;;;16.55;9.27;;;;;;;;;;5026287;28;20049;-71
2023/04/18 00:51:11;;;;;;;10.73;8.48;;;;;;;;;;5027729;28;20379;-71
2023/04/18 00:53:38;;;;;;;11.40;8.52;;;;;;;;;;5026819;28;20061;-71
2023/04/18 00:56:05;;;;;;;12.02;9.10;;;;;;;;;;5024563;28;20045;-69
2023/04/18 00:58:31;;;;;;;11.57;8.23;;;;;;;;;;5018141;28;20058;-71
2023/04/18 01:00:57;;;;;;;13.52;8.68;;;;;;;;;;5009801;28;20471;-71
2023/04/18 01:03:25;;;;;;;14.52;8.70;;;;;;;;;;5006168;28;20631;-71
2023/04/18 01:05:53;;;;;;;13.38;8.27;;;;;;;;;;5022809;28;20042;-72
2023/04/18 01:08:20;;;;;;;11.77;7.80;;;;;;;;;;5019367;28;20042;-72
2023/04/18 01:10:47;;;;;;;11.50;7.85;;;;;;;;;;5007493;28;20046;-72
2023/04/18 01:13:14;;;;;;;17.50;9.60;;;;;;;;;;5007056;28;20034;-73
2023/04/18 01:15:44;;;;;;;13.68;8.43;;;;;;;;;;5014798;28;20041;-72
2023/04/18 01:18:12;;;;;;;14.35;8.77;;;;;;;;;;4995371;28;20053;-72
2023/04/18 01:20:44;;;;;;;10.57;7.35;;;;;;;;;;5006595;28;20045;-72
2023/04/18 01:23:10;;;;;;;12.38;7.88;;;;;;;;;;5002044;28;20037;-72
2023/04/18 01:25:37;;;;;;;10.00;7.28;;;;;;;;;;4993784;28;20043;-71
2023/04/18 01:28:03;;;;;;;17.42;7.53;;;;;;;;;;5003738;28;20057;-73
2023/04/18 01:30:29;;;;;;;9.98;7.25;;;;;;;;;;5003985;28;20077;-72
2023/04/18 01:32:55;;;;;;;10.55;7.32;;;;;;;;;;4999581;28;20052;-73
2023/04/18 01:35:21;;;;;;;12.35;7.65;;;;;;;;;;4999161;28;20484;-72
2023/04/18 01:37:48;;;;;;;14.65;8.23;;;;;;;;;;5004448;28;20511;-73
2023/04/18 01:40:14;;;;;;;9.88;7.60;;;;;;;;;;5008330;28;20068;-72
2023/04/18 01:42:40;;;;;;;12.23;7.90;;;;;;;;;;5006512;28;20353;-73
2023/04/18 01:45:07;;;;;;;11.25;6.68;;;;;;;;;;5006015;28;20113;-71
2023/04/18 01:47:33;;;;;;;9.55;7.20;;;;;;;;;;5009902;28;20038;-72
2023/04/18 01:49:59;;;;;;;15.48;8.02;;;;;;;;;;4971518;28;20116;-71
2023/04/18 01:52:26;;;;;;;9.55;7.35;;;;;;;;;;5005014;28;20037;-74
2023/04/18 01:54:52;;;;;;;11.30;7.78;;;;;;;;;;5009092;28;20038;-73
2023/04/18 01:57:18;;;;;;;11.10;7.32;;;;;;;;;;5026691;28;20523;-73
2023/04/18 01:59:44;;;;;;;14.73;8.95;;;;;;;;;;5028869;28;20522;-73
2023/04/18 02:02:11;;;;;;;15.02;8.77;;;;;;;;;;5030862;28;20040;-72
2023/04/18 02:04:37;;;;;;;11.88;7.97;;;;;;;;;;5034186;28;20044;-73
2023/04/18 02:07:03;;;;;;;13.27;9.23;;;;;;;;;;5028025;28;20038;-73
2023/04/18 02:09:29;;;;;;;11.52;8.20;;;;;;;;;;5028165;28;20144;-73
2023/04/18 02:11:58;;;;;;;12.35;8.48;;;;;;;;;;5027822;28;20029;-73
2023/04/18 02:14:30;;;;;;;12.35;7.93;;;;;;;;;;5011741;28;20051;-73
2023/04/18 02:16:56;;;;;;;11.47;8.00;;;;;;;;;;5029060;28;20092;-73
2023/04/18 02:19:23;;;;;;;11.88;7.80;;;;;;;;;;5029546;28;20434;-73
2023/04/18 02:21:49;;;;;;;11.00;7.47;;;;;;;;;;5029819;28;20141;-73
2023/04/18 02:24:15;;;;;;;9.93;7.57;;;;;;;;;;5027351;28;20041;-73
2023/04/18 02:26:41;;;;;;;10.00;6.90;;;;;;;;;;5029421;28;20038;-73
2023/04/18 02:29:08;;;;;;;9.95;6.55;;;;;;;;;;5034575;28;20080;-73
2023/04/18 02:31:34;;;;;;;9.82;6.95;;;;;;;;;;5028685;28;20048;-73
2023/04/18 02:34:00;;;;;;;8.82;6.85;;;;;;;;;;5030151;28;20136;-73
2023/04/18 02:36:27;;;;;;;12.00;6.53;;;;;;;;;;5024864;28;20072;-73
2023/04/18 02:38:53;;;;;;;9.48;6.82;;;;;;;;;;5028915;28;20064;-73
2023/04/18 02:41:19;;;;;;;6.85;5.47;;;;;;;;;;5027788;28;20060;-73
2023/04/18 02:43:45;;;;;;;10.10;6.43;;;;;;;;;;5028717;28;20077;-72
2023/04/18 02:46:12;;;;;;;9.30;6.00;;;;;;;;;;5028373;28;20198;-74
2023/04/18 02:48:38;;;;;;;8.00;5.07;;;;;;;;;;5026897;28;20060;-74
2023/04/18 02:51:05;;;;;;;8.05;5.95;;;;;;;;;;5030910;28;20226;-74
2023/04/18 02:53:31;;;;;;;9.15;5.78;;;;;;;;;;5027822;28;20041;-73
2023/04/18 02:55:58;;;;;;;9.18;5.25;;;;;;;;;;5032335;28;20060;-73
2023/04/18 02:58:24;;;;;;;11.77;6.00;;;;;;;;;;5025240;28;20061;-73
2023/04/18 03:00:52;;;;;;;9.75;5.55;;;;;;;;;;5023833;28;20069;-73
2023/04/18 03:03:18;;;;;;;7.88;5.13;;;;;;;;;;5023139;28;20510;-74
2023/04/18 03:05:44;;;;;;;6.50;4.78;;;;;;;;;;5028574;28;20065;-73
2023/04/18 03:08:11;;;;;;;6.85;4.78;;;;;;;;;;5024277;28;20502;-74
2023/04/18 03:10:37;;;;;;;9.38;4.85;;;;;;;;;;5025649;28;20034;-73
2023/04/18 03:13:03;;;;;;;9.40;5.53;;;;;;;;;;5029032;28;20038;-74
2023/04/18 03:15:32;;;;;;;7.88;5.38;;;;;;;;;;5031400;28;20045;-74
2023/04/18 03:17:58;;;;;;;7.32;5.00;;;;;;;;;;5016122;28;20503;-73
2023/04/18 03:20:24;;;;;;;7.07;5.50;;;;;;;;;;5028447;28;20033;-74
2023/04/18 03:22:51;;;;;;;7.57;4.90;;;;;;;;;;5021361;28;20037;-74
2023/04/18 03:25:17;;;;;;;7.22;4.97;;;;;;;;;;5028825;28;20423;-73
2023/04/18 03:27:43;;;;;;;9.05;5.50;;;;;;;;;;5028390;28;20033;-73
2023/04/18 03:30:10;;;;;;;6.80;4.65;;;;;;;;;;5028837;28;20116;-73
2023/04/18 03:32:37;;;;;;;8.40;5.28;;;;;;;;;;5026829;28;20037;-73
2023/04/18 03:35:03;;;;;;;7.63;5.10;;;;;;;;;;5026469;28;20045;-73
2023/04/18 03:37:29;;;;;;;8.82;5.60;;;;;;;;;;5036286;28;20175;-73
2023/04/18 03:39:56;;;;;;;10.75;5.65;;;;;;;;;;5028274;28;20100;-72
2023/04/18 03:42:22;;;;;;;7.78;5.18;;;;;;;;;;5027464;28;20041;-73
2023/04/18 03:44:48;;;;;;;9.20;5.35;;;;;;;;;;5010118;28;20068;-73
2023/04/18 03:47:15;;;;;;;9.10;5.63;;;;;;;;;;5029636;28;20527;-73
2023/04/18 03:49:42;;;;;;;8.13;5.78;;;;;;;;;;5016769;28;20087;-73
2023/04/18 03:52:08;;;;;;;8.07;5.68;;;;;;;;;;5010428;28;20092;-73
2023/04/18 03:54:34;;;;;;;9.73;5.20;;;;;;;;;;5028339;28;20045;-74
2023/04/18 03:57:01;;;;;;;9.25;6.45;;;;;;;;;;5018742;28;20050;-73
2023/04/18 03:59:27;;;;;;;6.82;5.18;;;;;;;;;;5005628;28;20503;-73
2023/04/18 04:01:53;;;;;;;8.93;5.07;;;;;;;;;;5004446;28;20041;-73
2023/04/18 04:04:19;;;;;;;9.68;4.72;;;;;;;;;;5004987;28;20049;-73
2023/04/18 04:06:45;;;;;;;9.50;5.72;;;;;;;;;;5001020;28;20061;-73
2023/04/18 04:09:11;;;;;;;8.70;5.90;;;;;;;;;;4986135;28;20045;-73
2023/04/18 04:11:38;;;;;;;5.88;5.00;;;;;;;;;;5005310;28;20202;-73
2023/04/18 04:14:04;;;;;;;10.38;6.97;;;;;;;;;;5003775;28;20053;-72
2023/04/18 04:16:30;;;;;;;12.05;5.70;;;;;;;;;;5004249;28;20046;-73
2023/04/18 04:18:57;;;;;;;10.65;5.50;;;;;;;;;;5007843;28;20038;-73
2023/04/18 04:21:23;;;;;;;10.43;6.50;;;;;;;;;;4997949;28;20555;-73
2023/04/18 04:23:49;;;;;;;9.90;6.45;;;;;;;;;;5007980;28;20073;-73
2023/04/18 04:26:15;;;;;;;10.63;6.90;;;;;;;;;;5006646;28;20052;-73
2023/04/18 04:28:42;;;;;;;11.45;7.28;;;;;;;;;;4989765;28;20610;-73
2023/04/18 04:31:09;;;;;;;9.55;6.63;;;;;;;;;;5006606;28;20124;-73
2023/04/18 04:33:37;;;;;;;12.70;6.93;;;;;;;;;;4997445;28;20050;-74
2023/04/18 04:36:04;;;;;;;7.97;5.95;;;;;;;;;;5003637;28;20187;-73
2023/04/18 04:38:30;;;;;;;10.80;6.35;;;;;;;;;;5007246;28;20084;-73
2023/04/18 04:40:57;;;;;;;11.93;7.00;;;;;;;;;;5006092;28;20046;-73
2023/04/18 04:43:23;;;;;;;9.40;5.93;;;;;;;;;;4989507;28;20044;-73
2023/04/18 04:45:52;;;;;;;12.60;6.97;;;;;;;;;;5005731;28;20088;-73
2023/04/18 04:48:20;;;;;;;10.05;6.43;;;;;;;;;;5007073;28;20046;-73
2023/04/18 04:50:57;;;;;;;13.73;7.03;;;;;;;;;;5006566;28;20392;-74
2023/04/18 04:53:23;;;;;;;9.85;6.80;;;;;;;;;;5007766;28;20255;-73
2023/04/18 04:55:50;;;;;;;11.88;7.47;;;;;;;;;;5011259;28;20057;-73
2023/04/18 04:58:16;;;;;;;12.57;8.18;;;;;;;;;;4985208;28;20061;-72
2023/04/18 05:00:43;;;;;;;15.95;7.80;;;;;;;;;;4985746;28;20049;-73
2023/04/18 05:03:10;;;;;;;11.32;7.07;;;;;;;;;;4997352;28;20074;-72
2023/04/18 05:05:36;;;;;;;10.60;6.60;;;;;;;;;;5008952;28;20058;-72
2023/04/18 05:08:02;;;;;;;9.80;6.43;;;;;;;;;;5006773;28;20045;-72
2023/04/18 05:10:29;;;;;;;10.57;7.95;;;;;;;;;;5003544;28;20320;-73
2023/04/18 05:12:55;;;;;;;10.75;7.28;;;;;;;;;;4996600;28;20049;-72
2023/04/18 05:15:23;;;;;;;9.93;6.65;;;;;;;;;;4987362;28;20452;-73
2023/04/18 05:17:49;;;;;;;8.50;6.38;;;;;;;;;;5008397;28;20089;-72
2023/04/18 05:20:15;;;;;;;10.30;7.05;;;;;;;;;;4976288;28;20044;-71
2023/04/18 05:22:41;;;;;;;11.15;6.93;;;;;;;;;;4998890;28;20076;-72
2023/04/18 05:25:07;;;;;;;15.25;7.95;;;;;;;;;;5001061;28;20096;-72
2023/04/18 05:27:34;;;;;;;11.15;7.40;;;;;;;;;;5003294;28;20408;-72
2023/04/18 05:30:00;;;;;;;10.57;8.65;;;;;;;;;;4994920;28;20030;-73
2023/04/18 05:32:26;;;;;;;12.65;8.02;;;;;;;;;;4992448;28;20038;-73
2023/04/18 05:34:52;;;;;;;14.10;8.05;;;;;;;;;;4996779;28;20033;-72
2023/04/18 05:37:18;;;;;;;14.65;8.27;;;;;;;;;;4994466;28;20347;-73
2023/04/18 05:39:45;;;;;;;13.40;8.68;;;;;;;;;;5008718;28;20496;-74
2023/04/18 05:42:11;;;;;;;13.73;8.10;;;;;;;;;;5000508;28;20038;-73
2023/04/18 05:44:37;;;;;;;12.68;8.27;;;;;;;;;;5010376;28;20316;-74
2023/04/18 05:47:04;;;;;;;12.63;7.80;;;;;;;;;;4989823;28;20101;-73
2023/04/18 05:49:31;;;;;;;10.65;8.30;;;;;;;;;;4996179;28;20034;-73
2023/04/18 05:51:57;;;;;;;13.38;8.20;;;;;;;;;;4987402;28;20038;-74
2023/04/18 05:54:26;;;;;;;13.65;7.78;;;;;;;;;;4997047;28;20064;-73
2023/04/18 05:56:53;;;;;;;13.48;7.65;;;;;;;;;;5005940;28;20048;-73
2023/04/18 05:59:19;;;;;;;15.25;8.70;;;;;;;;;;5017370;28;20065;-74
2023/04/18 06:01:46;;;;;;;10.23;7.97;;;;;;;;;;5017831;28;20079;-74
2023/04/18 06:04:12;;;;;;;11.00;7.18;;;;;;;;;;5011683;28;20479;-73
2023/04/18 06:06:38;;;;;;;10.68;8.52;;;;;;;;;;5018236;28;20070;-72
2023/04/18 06:09:04;;;;;;;11.75;7.63;;;;;;;;;;5018648;28;20530;-72
2023/04/18 06:11:32;;;;;;;16.77;8.68;;;;;;;;;;5015031;28;20103;-72
2023/04/18 06:13:59;;;;;;;14.73;8.55;;;;;;;;;;5016658;28;20056;-73
2023/04/18 06:16:25;;;;;;;12.88;7.93;;;;;;;;;;5019610;28;20141;-73
2023/04/18 06:18:51;;;;;;;11.35;8.25;;;;;;;;;;5014646;28;20053;-73
2023/04/18 06:21:17;;;;;;;11.82;7.60;;;;;;;;;;5018237;28;20471;-73
2023/04/18 06:23:43;;;;;;;10.00;7.95;;;;;;;;;;5021586;28;20113;-72
2023/04/18 06:26:10;;;;;;;11.68;7.90;;;;;;;;;;5024999;28;20674;-72
2023/04/18 06:28:36;;;;;;;16.08;7.82;;;;;;;;;;5027424;28;20120;-72
2023/04/18 06:31:02;;;;;;;13.02;7.90;;;;;;;;;;5028546;28;20053;-73
2023/04/18 06:33:29;;;;;;;14.05;10.38;;;;;;;;;;5028144;28;20502;-73
2023/04/18 06:35:58;;;;;;;16.85;8.82;;;;;;;;;;5009240;28;20049;-73
2023/04/18 06:38:25;;;;;;;12.23;8.48;;;;;;;;;;5001247;28;20080;-73
2023/04/18 06:40:51;;;;;;;10.55;7.40;;;;;;;;;;5014815;28;20045;-72
2023/04/18 06:43:17;;;;;;;10.32;7.10;;;;;;;;;;5017918;28;20152;-73
2023/04/18 06:45:43;;;;;;;11.25;7.15;;;;;;;;;;5027382;28;20175;-73
2023/04/18 06:48:09;;;;;;;9.88;7.18;;;;;;;;;;5001850;28;20519;-73
2023/04/18 06:50:35;;;;;;;12.82;8.40;;;;;;;;;;5026591;28;20134;-72
2023/04/18 06:53:01;;;;;;;12.02;8.38;;;;;;;;;;5029312;28;20045;-73
2023/04/18 06:55:28;;;;;;;8.93;6.60;;;;;;;;;;5028861;28;20128;-72
2023/04/18 06:57:54;;;;;;;10.23;6.72;;;;;;;;;;5012849;28;20141;-72
2023/04/18 07:00:20;;;;;;;8.95;6.10;;;;;;;;;;5003006;28;20512;-72
2023/04/18 07:02:46;;;;;;;10.77;6.30;;;;;;;;;;4984490;28;20052;-72
2023/04/18 07:05:12;;;;;;;11.55;6.88;;;;;;;;;;4999929;28;20060;-73
2023/04/18 07:07:39;;;;;;;7.85;6.47;;;;;;;;;;5007731;28;20550;-73
2023/04/18 07:10:06;;;;;;;10.73;6.20;;;;;;;;;;5000519;28;20038;-73
2023/04/18 07:12:32;;;;;;;10.68;7.07;;;;;;;;;;4997504;28;20034;-72
2023/04/18 07:14:58;;;;;;;10.15;7.25;;;;;;;;;;4998358;28;20221;-73
2023/04/18 07:17:25;;;;;;;10.15;6.80;;;;;;;;;;4996203;28;20045;-73
2023/04/18 07:19:51;;;;;;;12.15;8.20;;;;;;;;;;5017124;28;20041;-72
2023/04/18 07:22:17;;;;;;;8.55;6.78;;;;;;;;;;5015708;28;20037;-73
2023/04/18 07:24:43;;;;;;;10.45;7.25;;;;;;;;;;5001112;28;20057;-73
2023/04/18 07:27:09;;;;;;;11.55;6.80;;;;;;;;;;4992900;28;20496;-72
2023/04/18 07:29:35;;;;;;;11.50;7.22;;;;;;;;;;5006891;28;20034;-73
2023/04/18 07:32:02;;;;;;;12.68;7.70;;;;;;;;;;5007091;28;20045;-72
2023/04/18 07:34:29;;;;;;;12.95;7.88;;;;;;;;;;4985404;28;20045;-72
2023/04/18 07:36:58;;;;;;;11.85;7.93;;;;;;;;;;5000539;28;20053;-72
2023/04/18 07:39:24;;;;;;;11.43;8.02;;;;;;;;;;5001724;28;20043;-72
2023/04/18 07:41:50;;;;;;;14.40;7.15;;;;;;;;;;4997760;28;20041;-72
2023/04/18 07:44:17;;;;;;;10.43;7.32;;;;;;;;;;5009132;28;20056;-72
2023/04/18 07:46:43;;;;;;;11.40;7.85;;;;;;;;;;5017776;28;20511;-73
2023/04/18 07:49:09;;;;;;;10.75;7.13;;;;;;;;;;5010092;28;20510;-72
2023/04/18 07:51:35;;;;;;;10.05;7.10;;;;;;;;;;5015706;28;20034;-73
2023/04/18 07:54:02;;;;;;;10.10;6.97;;;;;;;;;;5007718;28;20036;-73
2023/04/18 07:56:28;;;;;;;13.95;9.20;;;;;;;;;;5004351;28;20065;-72
2023/04/18 07:58:55;;;;;;;12.05;8.10;;;;;;;;;;5003578;28;20168;-73
2023/04/18 08:01:23;;;;;;;14.75;8.35;;;;;;;;;;5007228;28;20045;-73
2023/04/18 08:03:51;;;;;;;12.07;7.07;;;;;;;;;;5007979;28;20056;-73
2023/04/18 08:06:18;;;;;;;11.27;8.35;;;;;;;;;;5003247;28;20061;-74
2023/04/18 08:08:44;;;;;;;9.88;6.53;;;;;;;;;;4986101;28;20270;-73
2023/04/18 08:11:10;;;;;;;11.75;7.75;;;;;;;;;;5004101;28;20113;-73
2023/04/18 08:13:36;;;;;;;11.55;7.30;;;;;;;;;;5013427;28;20048;-73
2023/04/18 08:16:02;;;;;;;11.85;7.57;;;;;;;;;;4992376;28;20040;-73
2023/04/18 08:18:28;;;;;;;10.00;7.55;;;;;;;;;;5015492;28;20065;-74
2023/04/18 08:20:54;;;;;;;11.18;7.28;;;;;;;;;;5002822;28;20093;-73
2023/04/18 08:23:20;;;;;;;14.38;7.20;;;;;;;;;;5002149;28;20277;-73
2023/04/18 08:25:47;;;;;;;11.60;6.93;;;;;;;;;;5016401;28;20048;-72
2023/04/18 08:28:13;;;;;;;9.25;6.35;;;;;;;;;;5005219;28;20166;-72
2023/04/18 08:30:39;;;;;;;8.77;6.95;;;;;;;;;;4985756;28;20050;-72
2023/04/18 08:33:06;;;;;;;9.57;7.07;;;;;;;;;;5009617;28;20095;-72
2023/04/18 08:35:34;;;;;;;15.63;8.13;;;;;;;;;;4995221;28;20042;-72
2023/04/18 08:38:01;;;;;;;12.18;7.78;;;;;;;;;;5006625;28;20495;-72
2023/04/18 08:40:29;;;;;;;11.80;7.80;;;;;;;;;;5010207;28;20127;-72
2023/04/18 08:42:57;;;;;;;9.88;6.90;;;;;;;;;;5018591;28;20476;-72
2023/04/18 08:45:25;;;;;;;14.30;7.63;;;;;;;;;;4979504;28;20130;-72
2023/04/18 08:47:51;;;;;;;15.98;7.75;;;;;;;;;;5010030;28;20050;-72
2023/04/18 08:50:17;;;;;;;9.38;7.18;;;;;;;;;;4989399;28;20331;-72
2023/04/18 08:52:47;;;;;;;11.70;7.70;;;;;;;;;;5017989;28;20125;-72
2023/04/18 08:55:14;;;;;;;11.45;6.65;;;;;;;;;;4999400;28;20104;-72
2023/04/18 08:57:40;;;;;;;9.23;6.38;;;;;;;;;;4998043;28;20102;-73
2023/04/18 09:00:10;;;;;;;12.10;7.68;;;;;;;;;;5030175;28;20465;-73
2023/04/18 09:02:43;;;;;;;9.85;6.30;;;;;;;;;;5028391;28;20544;-72
2023/04/18 09:05:10;;;;;;;10.45;6.88;;;;;;;;;;5019287;28;20048;-72
2023/04/18 09:07:36;;;;;;;11.10;6.75;;;;;;;;;;5012859;28;20076;-73
2023/04/18 09:10:02;;;;;;;10.23;6.25;;;;;;;;;;5052118;28;20445;-72
2023/04/18 09:12:29;;;;;;;8.50;6.75;;;;;;;;;;5056181;28;20098;-72
2023/04/18 09:14:56;;;;;;;11.80;8.00;;;;;;;;;;5038387;28;20158;-72
2023/04/18 09:17:42;;;;;;;9.82;7.95;;;;;;;;;;5044966;28;20364;-72
2023/04/18 09:20:10;;;;;;;9.68;6.68;;;;;;;;;;5048976;28;20618;-73
2023/04/18 09:22:53;;;;;;;10.50;7.35;;;;;;;;;;5046374;28;20494;-72
2023/04/18 09:25:36;;;;;;;10.25;6.30;;;;;;;;;;5028003;28;20072;-73
2023/04/18 09:28:22;;;;;;;10.60;7.30;;;;;;;;;;5051383;28;20045;-72
2023/04/18 09:30:50;;;;;;;9.27;6.88;;;;;;;;;;5060453;28;20036;-72
2023/04/18 09:33:16;;;;;;;22.00;7.40;;;;;;;;;;5046488;28;20029;-73
2023/04/18 09:35:43;;;;;;;9.13;6.60;;;;;;;;;;5047898;28;20489;-73
2023/04/18 09:38:09;;;;;;;8.68;6.82;;;;;;;;;;5051922;28;20037;-72
2023/04/18 09:40:35;;;;;;;10.15;6.65;;;;;;;;;;5053313;28;20033;-73
2023/04/18 09:43:17;;;;;;;11.60;6.60;;;;;;;;;;5054051;28;20033;-73
2023/04/18 09:45:43;;;;;;;9.93;6.65;;;;;;;;;;5053128;28;20072;-73
2023/04/18 09:48:09;;;;;;;9.88;6.10;;;;;;;;;;5061446;28;20429;-73
2023/04/18 09:50:37;;;;;;;10.57;6.68;;;;;;;;;;5046330;28;20037;-73
2023/04/18 09:53:03;;;;;;;10.25;6.45;;;;;;;;;;5044548;28;20103;-72
2023/04/18 09:55:31;;;;;;;13.82;6.55;;;;;;;;;;5046819;28;20124;-73
2023/04/18 09:57:59;;;;;;;8.57;5.13;;;;;;;;;;5038665;28;20359;-72
2023/04/18 10:00:26;;;;;;;8.70;5.40;;;;;;;;;;5040872;28;20495;-73
2023/04/18 10:02:53;;;;;;;7.93;5.40;;;;;;;;;;5055068;28;20189;-72
2023/04/18 10:05:20;;;;;;;8.63;5.47;;;;;;;;;;5051629;28;20045;-73
2023/04/18 10:07:47;;;;;;;9.25;5.40;;;;;;;;;;5056194;28;20036;-72
2023/04/18 10:10:14;;;;;;;7.78;5.07;;;;;;;;;;5042434;28;20041;-73
2023/04/18 10:12:41;;;;;;;7.68;5.05;;;;;;;;;;5049010;28;20041;-73
2023/04/18 10:15:08;;;;;;;7.43;5.10;;;;;;;;;;5033624;28;20068;-72
2023/04/18 10:17:44;;;;;;;9.80;6.00;;;;;;;;;;5042434;28;20044;-73
2023/04/18 10:20:16;;;;;;;7.57;4.75;;;;;;;;;;5049085;28;20037;-72
2023/04/18 10:22:42;;;;;;;7.30;5.38;;;;;;;;;;5047067;28;20513;-73
2023/04/18 10:25:08;;;;;;;8.15;5.50;;;;;;;;;;5050528;28;20041;-72
2023/04/18 10:27:53;;;;;;;10.75;5.72;;;;;;;;;;5040849;28;20083;-73
2023/04/18 10:30:19;;;;;;;7.57;5.40;;;;;;;;;;5043174;28;20566;-73
2023/04/18 10:32:45;;;;;;;6.68;4.57;;;;;;;;;;5029386;28;20390;-73
2023/04/18 10:35:11;;;;;;;8.85;5.82;;;;;;;;;;5063664;28;20423;-72
2023/04/18 10:37:50;;;;;;;8.38;5.32;;;10.50;99.90;;;;;;5057151;28;20040;-73
2023/04/18 10:40:16;;;;;;;11.30;4.75;;;;;;;;;;5049463;28;20431;-72
2023/04/18 10:42:52;;;;;;;5.68;3.88;;;;;;;;;;5045078;28;20029;-72
2023/04/18 10:45:26;;;;;;;7.55;3.42;;;;;;;;;;5048951;28;20146;-72
2023/04/18 10:48:15;;;;;;;14.40;4.95;;;;;;;;;;5028999;28;20865;-72
2023/04/18 10:51:16;;;;;;;8.32;4.53;;;;;;;;;;5049194;28;20063;-72
2023/04/18 10:53:52;;;;;;;7.65;5.07;;;;;;;;;;4988388;28;20038;-72
2023/04/18 10:56:18;;;;;;;7.05;4.53;;;;;;;;;;5026630;28;20064;-73
2023/04/18 10:58:49;;;;;;;5.55;3.80;;;;;;;;;;5048429;28;20055;-74
2023/04/18 11:01:20;;;;;;;7.63;4.07;;;;;;;;;;5052310;28;20041;-73
2023/04/18 11:03:46;;;;;;;7.95;4.80;;;;;;;;;;5019369;28;20041;-73
2023/04/18 11:06:12;;;;;;;9.50;4.90;;;;;;;;;;5033703;28;20047;-74
2023/04/18 11:08:38;;;;;;;7.60;3.85;;;;;;;;;;5049909;28;20032;-73
2023/04/18 11:11:08;;;;;;;6.57;5.20;;;;;;;;;;5042747;28;20561;-73
2023/04/18 11:13:35;;;;;;;6.13;4.82;;;;;;;;;;5043160;28;20511;-73
2023/04/18 11:16:02;;;;;;;7.88;4.70;;;;;;;;;;5041531;28;20051;-73
2023/04/18 11:18:39;;;;;;;8.05;5.10;;;;;;;;;;5033033;28;20037;-73
2023/04/18 11:21:06;;;;;;;8.80;5.40;;;;;;;;;;5040598;28;20045;-73
2023/04/18 11:23:32;;;;;;;19.23;5.18;;;;;;;;;;5043788;28;20103;-73
2023/04/18 11:25:59;;;;;;;7.43;4.75;;;;;;;;;;5040246;28;20185;-73
2023/04/18 11:28:26;;;;;;;8.05;5.68;;;;;;;;;;5031308;28;20044;-73
2023/04/18 11:30:56;;;;;;;6.38;5.07;;;;;;;;;;5046543;28;20095;-73
2023/04/18 11:33:26;;;;;;;7.50;5.28;;;;;;;;;;5044582;28;20110;-73
2023/04/18 11:35:57;;;;;;;6.60;5.10;;;;;;;;;;5036811;28;20467;-73
2023/04/18 11:38:27;;;;;;;11.32;6.30;;;;;;;;;;5024450;28;20540;-73
2023/04/18 11:40:53;;;;;;;5.85;5.20;;;;;;;;;;5046702;28;20037;-74
2023/04/18 11:43:23;;;;;;;6.47;4.35;;;;;;;;;;5032095;28;20056;-74
2023/04/18 11:45:53;;;;;;;12.93;5.70;;;;;;;;;;5046038;28;20037;-73
2023/04/18 11:48:19;;;;;;;8.27;5.20;;;;;;;;;;5052117;28;20474;-74
2023/04/18 11:50:45;;;;;;;7.15;5.13;;;;;;;;;;5049162;28;20029;-73
2023/04/18 11:53:11;;;;;;;9.27;5.90;;;;;;;;;;5043265;28;20574;-73
2023/04/18 11:55:37;;;;;;;7.82;4.82;;;;;;;;;;5040399;28;20088;-73
2023/04/18 11:58:05;;;;;;;6.05;4.35;;;;;;;;;;5046015;28;20108;-74
2023/04/18 12:00:36;;;;;;;5.20;3.85;;;;;;;;;;5040093;28;20490;-74
2023/04/18 12:03:09;;;;;;;6.90;4.47;;;;;;;;;;5043523;28;20459;-73
2023/04/18 12:05:35;;;;;;;;;;;;;;;;;;5054736;28;20165;-73
2023/04/18 12:08:12;;;;;;;6.93;5.05;;;;;;;;;;5039903;28;19917;-74
2023/04/18 12:10:45;;;;;;;7.00;5.00;;;;;;;;;;5028739;28;20045;-73
2023/04/18 12:13:11;;;;;;;7.35;4.18;;;;;;;;;;5049912;28;20126;-73
2023/04/18 12:15:38;;;;;;;8.60;4.88;;;;;;;;;;5047990;28;20052;-73
2023/04/18 12:18:06;;;;;;;4.93;4.05;;;;;;;;;;5034188;28;20046;-73
2023/04/18 12:20:51;;;;;;;6.93;4.03;;;12.60;99.90;;;;;;5033983;28;20033;-73
2023/04/18 12:23:37;;;;;;;5.75;3.92;;;13.90;99.70;;;;;;5048336;28;20036;-73
2023/04/18 12:26:04;;;;;;;7.07;5.20;;;13.90;99.90;;;;;;5036424;28;20435;-73
2023/04/18 12:28:30;;;;;;;6.82;4.65;;;13.90;99.90;;;;;;5036328;28;20040;-73
2023/04/18 12:30:57;;;;;;;5.70;4.50;;;13.90;99.90;;;;;;5044764;28;20029;-73
2023/04/18 12:33:23;;;;;;;7.93;4.60;;;14.00;99.90;;;;;;5046151;28;20049;-73
2023/04/18 12:35:51;;;;;;;5.70;4.32;;;14.10;99.90;;;;;;5036416;28;20045;-73
2023/04/18 12:38:21;;;;;;;6.57;3.88;;;14.20;99.90;;;;;;5029674;28;20238;-73
2023/04/18 12:40:47;;;;;;;6.28;3.75;;;14.20;99.90;;;;;;5030896;28;20047;-73
2023/04/18 12:43:12;;;;;;;5.53;3.13;;;14.30;99.90;;;;;;5023536;28;20037;-73
2023/04/18 12:45:38;;;;;;;9.63;4.60;;;14.30;99.90;;;;;;5037391;28;20045;-73
2023/04/18 12:48:05;;;;;;;8.50;4.45;;;14.40;99.90;;;;;;5039238;28;20091;-73
2023/04/18 12:50:32;;;;;;;4.20;2.90;;;;;;;;;;5035539;28;20040;-72
2023/04/18 12:52:59;;;;;;;7.93;4.15;;;;;;;;;;5041223;28;20037;-73
2023/04/18 12:55:25;;;;;;;9.27;6.72;;;;;;;;;;5048444;28;20437;-73
2023/04/18 12:57:53;;;;;;;9.52;7.60;;;14.50;99.90;;;;;;5051485;28;20041;-74
2023/04/18 13:00:21;;;;;;;13.60;8.43;;;;;;;;;;5047852;28;20161;-73
2023/04/18 13:02:48;;;;;;;10.63;8.75;;;;;;;;;;5040901;28;20050;-73
2023/04/18 13:05:14;;;;;;;11.68;7.25;;;;;;;;;;5047103;28;20511;-73
2023/04/18 13:07:41;;;;;;;12.50;7.47;;;;;;;;;;5045357;28;20536;-74
2023/04/18 13:10:08;;;;;;;11.35;7.38;;;;;;;;;;5047203;28;20574;-73
2023/04/18 13:12:35;;;;;;;11.93;8.15;;;;;;;;;;5027103;28;20045;-74
2023/04/18 13:15:02;;;;;;;16.65;7.85;;;;;;;;;;5043859;28;20738;-73
2023/04/18 13:17:28;;;;;;;14.68;9.07;;;;;;;;;;5049523;28;20134;-73
2023/04/18 13:19:54;;;;;;;11.27;7.53;;;;;;;;;;5046498;28;20141;-73
2023/04/18 13:22:20;;;;;;;13.15;7.50;;;;;;;;;;5030563;28;20041;-74
2023/04/18 13:24:47;;;;;;;10.57;7.47;;;;;;;;;;5053095;28;20115;-74
2023/04/18 13:27:13;;;;;;;11.55;8.85;;;;;;;;;;5048087;28;20190;-74
2023/04/18 13:29:40;;;;;;;11.38;7.50;;;;;;;;;;5055789;28;20417;-74
2023/04/18 13:32:06;;;;;;;8.68;7.57;;;;;;;;;;5059180;28;20116;-74
2023/04/18 13:34:43;;;;;;;12.52;8.88;;;;;;;;;;5050502;28;20073;-73
2023/04/18 13:37:09;;;;;;;11.32;8.82;;;;;;;;;;5046727;28;20474;-74
2023/04/18 13:39:35;;;;;;;13.63;9.50;;;;;;;;;;5053896;28;20041;-73
2023/04/18 13:42:03;;;;;;;11.75;7.95;;;;;;;;;;5057067;28;20063;-74
2023/04/18 13:44:30;;;;;;;10.77;7.88;;;;;;;;;;5042278;28;20033;-73
2023/04/18 13:46:56;;;;;;;10.63;8.15;;;;;;;;;;5051704;28;20542;-74
2023/04/18 13:49:22;;;;;;;11.98;8.52;;;;;;;;;;5053210;28;20063;-75
2023/04/18 13:51:52;;;;;;;11.50;8.73;;;;;;;;;;5051037;28;20037;-74
2023/04/18 13:54:18;;;;;;;13.10;8.15;;;;;;;;;;5036175;28;20103;-73
2023/04/18 13:56:45;;;;;;;11.52;8.18;;;;;;;;;;5052154;28;20048;-74
2023/04/18 13:59:11;;;;;;;16.13;9.35;;;;;;;;;;5046354;28;20049;-73
2023/04/18 14:01:37;;;;;;;8.95;6.45;;;;;;;;;;5035530;28;20040;-73
2023/04/18 14:04:03;;;;;;;16.63;5.05;;;;;;;;;;5046092;28;20156;-73
2023/04/18 14:06:29;;;;;;;7.60;5.10;;;;;;;;;;5051010;28;20056;-73
2023/04/18 14:08:56;;;;;;;9.30;5.20;;;;;;;;;;5050383;28;20044;-73
2023/04/18 14:11:22;;;;;;;6.38;5.32;;;;;;;;;;5038484;28;20123;-74
2023/04/18 14:13:48;;;;;;;6.13;4.40;;;;;;;;;;5047690;28;20116;-73
2023/04/18 14:16:14;;;;;;;9.40;4.85;;;;;;;;;;5054944;28;20040;-73
2023/04/18 14:18:41;;;;;;;7.47;5.63;;;;;;;;;;5054509;28;20045;-74
2023/04/18 14:21:07;;;;;;;10.07;7.00;;;;;;;;;;5045480;28;20525;-73
2023/04/18 14:23:34;;;;;;;7.70;5.45;;;;;;;;;;5041046;28;20041;-72
2023/04/18 14:26:00;;;;;;;8.63;4.90;;;;;;;;;;5056516;28;20127;-73
2023/04/18 14:28:26;;;;;;;6.45;4.68;;;;;;;;;;5056055;28;20103;-73
2023/04/18 14:30:56;;;;;;;6.47;5.28;;;;;;;;;;5032923;28;20578;-74
2023/04/18 14:33:23;;;;;;;4.72;4.00;;;;;;;;;;5040021;28;20106;-74